PWSweather.com
Personal Weather Stations
Station Observations
KTXPLANO60
Highlands Of Russell Park, Plano, TX 75025

Highlands Of Russell ParkPlano, TX 75025

Lat: 33.10431671, Lon: -96.75176239

Elevation: 761

Station Type: Davis Wireless VP2 Plus

http://www.planoweather.com

Latest ConditionsUpdated 6:30:08 PM CDT Tuesday, Jul 22, 2014
Currently Today's Max Today's Min Today's Average
Temperature 95.0°F35.0°C 97.4°F36.3°C 74.9°F23.8°C 85.4°F29.7°C
Dew Point 72.8°F22.7°C 78.5°F25.8°C 71.8°F22.1°C 74.5°F23.6°C
Winds 1.8 mph E2.9 kmh E 6.8 mph E10.9 kmh E - 1.9 mph 3.1 kmh
Wind Gusts 4.0 mph6.4 kmh 11.0 mph17.7 kmh - -
Humidity 49% 91% 47% 72%
Pressure 29.94 in1013.9 mb 30.01 in1016.3 mb 29.93 in1013.5 mb -
Hour Temp Dew Point Humidity Winds Wind Gusts Pressure Precip Precip Rate Daily Precip Total
06:30 PM 95.0°F35.0°C 72.8°F22.7°C 49% 1.8 mph E2.9 kmh E 4.0 mph6.4 kmh 29.94 in1013.9 mb 0.00 in0.0 mm 0.00 in/hr0.0 mm/hr 0.00 in0.0 mm
06:20 PM 95.1°F35.1°C 72.9°F22.7°C 49% 2.8 mph E4.5 kmh E 8.0 mph12.9 kmh 29.94 in1013.9 mb 0.00 in0.0 mm 0.00 in/hr0.0 mm/hr 0.00 in0.0 mm
06:10 PM 95.4°F35.2°C 73.2°F22.9°C 49% 6.8 mph E10.9 kmh E 10.0 mph16.1 kmh 29.95 in1014.2 mb 0.00 in0.0 mm 0.00 in/hr0.0 mm/hr 0.00 in0.0 mm
06:00 PM 95.7°F35.4°C 73.5°F23.1°C 49% 4.6 mph E7.4 kmh E 8.0 mph12.9 kmh 29.95 in1014.2 mb 0.00 in0.0 mm 0.00 in/hr0.0 mm/hr 0.00 in0.0 mm
05:50 PM 95.9°F35.5°C 73.0°F22.8°C 48% 4.9 mph E7.9 kmh E 8.0 mph12.9 kmh 29.95 in1014.2 mb 0.00 in0.0 mm 0.00 in/hr0.0 mm/hr 0.00 in0.0 mm
05:40 PM 96.0°F35.6°C 73.1°F22.8°C 48% 2.6 mph E4.2 kmh E 6.0 mph9.7 kmh 29.95 in1014.2 mb 0.00 in0.0 mm 0.00 in/hr0.0 mm/hr 0.00 in0.0 mm
05:30 PM 96.0°F35.6°C 73.8°F23.2°C 49% 4.7 mph E7.6 kmh E 6.0 mph9.7 kmh 29.95 in1014.2 mb 0.00 in0.0 mm 0.00 in/hr0.0 mm/hr 0.00 in0.0 mm
05:20 PM 96.2°F35.7°C 73.3°F22.9°C 48% 4.1 mph ENE6.6 kmh ENE 7.0 mph11.3 kmh 29.95 in1014.2 mb 0.00 in0.0 mm 0.00 in/hr0.0 mm/hr 0.00 in0.0 mm
05:10 PM 96.2°F35.7°C 75.7°F24.3°C 52% 0.1 mph E0.2 kmh E -- 29.95 in1014.2 mb 0.00 in0.0 mm 0.00 in/hr0.0 mm/hr 0.00 in0.0 mm
05:00 PM 96.9°F36.1°C 73.3°F22.9°C 47% 1.6 mph E2.6 kmh E 6.0 mph9.7 kmh 29.95 in1014.2 mb 0.00 in0.0 mm 0.00 in/hr0.0 mm/hr 0.00 in0.0 mm
04:50 PM 97.3°F36.3°C 75.6°F24.2°C 50% 0.4 mph E0.6 kmh E 5.0 mph8.0 kmh 29.95 in1014.2 mb 0.00 in0.0 mm 0.00 in/hr0.0 mm/hr 0.00 in0.0 mm
04:40 PM 97.3°F36.3°C 75.5°F24.2°C 50% 1.7 mph E2.7 kmh E 6.0 mph9.7 kmh 29.95 in1014.2 mb 0.00 in0.0 mm 0.00 in/hr0.0 mm/hr 0.00 in0.0 mm
04:30 PM 97.4°F36.3°C 75.6°F24.2°C 50% 4.7 mph ENE7.6 kmh ENE 7.0 mph11.3 kmh 29.95 in1014.2 mb 0.00 in0.0 mm 0.00 in/hr0.0 mm/hr 0.00 in0.0 mm
04:20 PM 97.1°F36.2°C 75.4°F24.1°C 50% 4.8 mph E7.7 kmh E 4.0 mph6.4 kmh 29.96 in1014.6 mb 0.00 in0.0 mm 0.00 in/hr0.0 mm/hr 0.00 in0.0 mm
04:10 PM 96.7°F35.9°C 75.6°F24.2°C 51% 5.6 mph E9.0 kmh E 8.0 mph12.9 kmh 29.96 in1014.6 mb 0.00 in0.0 mm 0.00 in/hr0.0 mm/hr 0.00 in0.0 mm
04:00 PM 96.0°F35.6°C 75.5°F24.2°C 52% 2.7 mph E4.3 kmh E 7.0 mph11.3 kmh 29.96 in1014.6 mb 0.00 in0.0 mm 0.00 in/hr0.0 mm/hr 0.00 in0.0 mm
03:50 PM 95.2°F35.1°C 76.5°F24.7°C 55% 4.4 mph E7.1 kmh E 5.0 mph8.0 kmh 29.96 in1014.6 mb 0.00 in0.0 mm 0.00 in/hr0.0 mm/hr 0.00 in0.0 mm
03:40 PM 94.7°F34.8°C 76.0°F24.4°C 55% 4.1 mph ENE6.6 kmh ENE 6.0 mph9.7 kmh 29.96 in1014.6 mb 0.00 in0.0 mm 0.00 in/hr0.0 mm/hr 0.00 in0.0 mm
03:30 PM 95.5°F35.3°C 75.1°F23.9°C 52% 4.3 mph ENE6.9 kmh ENE 10.0 mph16.1 kmh 29.96 in1014.6 mb 0.00 in0.0 mm 0.00 in/hr0.0 mm/hr 0.00 in0.0 mm
03:20 PM 95.3°F35.2°C 75.5°F24.2°C 53% Calm Calm -- 29.97 in1014.9 mb 0.00 in0.0 mm 0.00 in/hr0.0 mm/hr 0.00 in0.0 mm
03:10 PM 95.8°F35.4°C 75.9°F24.4°C 53% 0.2 mph ENE0.3 kmh ENE -- 29.97 in1014.9 mb 0.00 in0.0 mm 0.00 in/hr0.0 mm/hr 0.00 in0.0 mm
03:00 PM 95.9°F35.5°C 75.4°F24.1°C 52% Calm Calm -- 29.97 in1014.9 mb 0.00 in0.0 mm 0.00 in/hr0.0 mm/hr 0.00 in0.0 mm
02:50 PM 95.3°F35.2°C 77.1°F25.1°C 56% 5.0 mph ENE8.0 kmh ENE 6.0 mph9.7 kmh 29.97 in1014.9 mb 0.00 in0.0 mm 0.00 in/hr0.0 mm/hr 0.00 in0.0 mm
02:40 PM 94.9°F34.9°C 77.3°F25.2°C 57% 4.3 mph E6.9 kmh E 6.0 mph9.7 kmh 29.96 in1014.6 mb 0.00 in0.0 mm 0.00 in/hr0.0 mm/hr 0.00 in0.0 mm
02:30 PM 95.8°F35.4°C 76.5°F24.7°C 54% 2.8 mph E4.5 kmh E 4.0 mph6.4 kmh 29.97 in1014.9 mb 0.00 in0.0 mm 0.00 in/hr0.0 mm/hr 0.00 in0.0 mm
02:20 PM 96.0°F35.6°C 78.3°F25.7°C 57% 2.8 mph E4.5 kmh E 6.0 mph9.7 kmh 29.97 in1014.9 mb 0.00 in0.0 mm 0.00 in/hr0.0 mm/hr 0.00 in0.0 mm
02:10 PM 96.0°F35.6°C 77.2°F25.1°C 55% 3.7 mph E6.0 kmh E 5.0 mph8.0 kmh 29.97 in1014.9 mb 0.00 in0.0 mm 0.00 in/hr0.0 mm/hr 0.00 in0.0 mm
02:00 PM 95.6°F35.3°C 76.9°F24.9°C 55% 3.4 mph E5.5 kmh E 5.0 mph8.0 kmh 29.97 in1014.9 mb 0.00 in0.0 mm 0.00 in/hr0.0 mm/hr 0.00 in0.0 mm
01:50 PM 95.1°F35.1°C 76.9°F24.9°C 56% 0.1 mph E0.2 kmh E 8.0 mph12.9 kmh 29.98 in1015.2 mb 0.00 in0.0 mm 0.00 in/hr0.0 mm/hr 0.00 in0.0 mm
01:40 PM 94.5°F34.7°C 78.5°F25.8°C 60% 1.5 mph E2.4 kmh E 4.0 mph6.4 kmh 29.98 in1015.2 mb 0.00 in0.0 mm 0.00 in/hr0.0 mm/hr 0.00 in0.0 mm
01:30 PM 94.2°F34.6°C 77.2°F25.1°C 58% 1.0 mph E1.6 kmh E 4.0 mph6.4 kmh 29.98 in1015.2 mb 0.00 in0.0 mm 0.00 in/hr0.0 mm/hr 0.00 in0.0 mm
01:20 PM 94.1°F34.5°C 77.6°F25.3°C 59% 1.0 mph E1.6 kmh E 1.0 mph1.6 kmh 29.98 in1015.2 mb 0.00 in0.0 mm 0.00 in/hr0.0 mm/hr 0.00 in0.0 mm
01:10 PM 93.5°F34.2°C 77.5°F25.3°C 60% 4.6 mph ESE7.4 kmh ESE 6.0 mph9.7 kmh 29.98 in1015.2 mb 0.00 in0.0 mm 0.00 in/hr0.0 mm/hr 0.00 in0.0 mm
01:00 PM 92.9°F33.8°C 77.5°F25.3°C 61% 5.2 mph ESE8.4 kmh ESE 8.0 mph12.9 kmh 29.98 in1015.2 mb 0.00 in0.0 mm 0.00 in/hr0.0 mm/hr 0.00 in0.0 mm
12:50 PM 92.4°F33.6°C 78.0°F25.6°C 63% 1.1 mph ESE1.8 kmh ESE 7.0 mph11.3 kmh 29.98 in1015.2 mb 0.00 in0.0 mm 0.00 in/hr0.0 mm/hr 0.00 in0.0 mm
12:40 PM 92.5°F33.6°C 77.6°F25.3°C 62% 1.1 mph ESE1.8 kmh ESE 1.0 mph1.6 kmh 29.98 in1015.2 mb 0.00 in0.0 mm 0.00 in/hr0.0 mm/hr 0.00 in0.0 mm
12:30 PM 92.7°F33.7°C 78.3°F25.7°C 63% 3.3 mph ESE5.3 kmh ESE 5.0 mph8.0 kmh 29.99 in1015.6 mb 0.00 in0.0 mm 0.00 in/hr0.0 mm/hr 0.00 in0.0 mm
12:20 PM 92.0°F33.3°C 77.1°F25.1°C 62% 0.2 mph ESE0.3 kmh ESE 6.0 mph9.7 kmh 29.99 in1015.6 mb 0.00 in0.0 mm 0.00 in/hr0.0 mm/hr 0.00 in0.0 mm
12:10 PM 91.5°F33.1°C 78.5°F25.8°C 66% 1.6 mph ESE2.6 kmh ESE 6.0 mph9.7 kmh 29.99 in1015.6 mb 0.00 in0.0 mm 0.00 in/hr0.0 mm/hr 0.00 in0.0 mm
12:00 PM 91.1°F32.8°C 76.7°F24.8°C 63% Calm Calm -- 29.99 in1015.6 mb 0.00 in0.0 mm 0.00 in/hr0.0 mm/hr 0.00 in0.0 mm
11:50 AM 91.0°F32.8°C 77.1°F25.1°C 64% 1.3 mph ESE2.1 kmh ESE 4.0 mph6.4 kmh 29.99 in1015.6 mb 0.00 in0.0 mm 0.00 in/hr0.0 mm/hr 0.00 in0.0 mm
11:40 AM 90.5°F32.5°C 78.0°F25.6°C 67% 1.7 mph ESE2.7 kmh ESE 8.0 mph12.9 kmh 29.99 in1015.6 mb 0.00 in0.0 mm 0.00 in/hr0.0 mm/hr 0.00 in0.0 mm
11:30 AM 90.1°F32.3°C 77.2°F25.1°C 66% 2.3 mph ESE3.7 kmh ESE 7.0 mph11.3 kmh 30.00 in1015.9 mb 0.00 in0.0 mm 0.00 in/hr0.0 mm/hr 0.00 in0.0 mm
11:20 AM 89.6°F32.0°C 77.6°F25.3°C 68% 1.7 mph ESE2.7 kmh ESE 6.0 mph9.7 kmh 29.99 in1015.6 mb 0.00 in0.0 mm 0.00 in/hr0.0 mm/hr 0.00 in0.0 mm
11:10 AM 89.1°F31.7°C 77.6°F25.3°C 69% 1.2 mph ESE1.9 kmh ESE 5.0 mph8.0 kmh 29.99 in1015.6 mb 0.00 in0.0 mm 0.00 in/hr0.0 mm/hr 0.00 in0.0 mm
11:00 AM 88.7°F31.5°C 77.2°F25.1°C 69% 2.2 mph ESE3.5 kmh ESE 5.0 mph8.0 kmh 29.99 in1015.6 mb 0.00 in0.0 mm 0.00 in/hr0.0 mm/hr 0.00 in0.0 mm
10:50 AM 88.4°F31.3°C 76.9°F24.9°C 69% 0.6 mph ESE1.0 kmh ESE -- 29.99 in1015.6 mb 0.00 in0.0 mm 0.00 in/hr0.0 mm/hr 0.00 in0.0 mm
10:40 AM 88.0°F31.1°C 77.4°F25.2°C 71% 1.1 mph ESE1.8 kmh ESE 5.0 mph8.0 kmh 29.99 in1015.6 mb 0.00 in0.0 mm 0.00 in/hr0.0 mm/hr 0.00 in0.0 mm
10:30 AM 87.6°F30.9°C 76.6°F24.8°C 70% 5.9 mph ESE9.5 kmh ESE 8.0 mph12.9 kmh 29.99 in1015.6 mb 0.00 in0.0 mm 0.00 in/hr0.0 mm/hr 0.00 in0.0 mm
10:20 AM 87.5°F30.8°C 76.5°F24.7°C 70% 0.5 mph ESE0.8 kmh ESE 5.0 mph8.0 kmh 30.00 in1015.9 mb 0.00 in0.0 mm 0.00 in/hr0.0 mm/hr 0.00 in0.0 mm
10:10 AM 87.1°F30.6°C 76.5°F24.7°C 71% 0.8 mph ESE1.3 kmh ESE 6.0 mph9.7 kmh 30.00 in1015.9 mb 0.00 in0.0 mm 0.00 in/hr0.0 mm/hr 0.00 in0.0 mm
10:00 AM 86.7°F30.4°C 76.2°F24.6°C 71% 4.6 mph ESE7.4 kmh ESE 6.0 mph9.7 kmh 30.00 in1015.9 mb 0.00 in0.0 mm 0.00 in/hr0.0 mm/hr 0.00 in0.0 mm
09:50 AM 86.0°F30.0°C 76.4°F24.7°C 73% 2.7 mph ESE4.3 kmh ESE 6.0 mph9.7 kmh 30.00 in1015.9 mb 0.00 in0.0 mm 0.00 in/hr0.0 mm/hr 0.00 in0.0 mm
09:40 AM 85.4°F29.7°C 75.8°F24.3°C 73% 0.5 mph ESE0.8 kmh ESE 5.0 mph8.0 kmh 30.01 in1016.3 mb 0.00 in0.0 mm 0.00 in/hr0.0 mm/hr 0.00 in0.0 mm
09:30 AM 84.6°F29.2°C 75.8°F24.3°C 75% 1.3 mph ESE2.1 kmh ESE 5.0 mph8.0 kmh 30.01 in1016.3 mb 0.00 in0.0 mm 0.00 in/hr0.0 mm/hr 0.00 in0.0 mm
09:20 AM 83.7°F28.7°C 75.7°F24.3°C 77% 0.7 mph ESE1.1 kmh ESE 6.0 mph9.7 kmh 30.01 in1016.3 mb 0.00 in0.0 mm 0.00 in/hr0.0 mm/hr 0.00 in0.0 mm
09:10 AM 83.0°F28.3°C 75.0°F23.9°C 77% 0.1 mph ESE0.2 kmh ESE -- 30.01 in1016.3 mb 0.00 in0.0 mm 0.00 in/hr0.0 mm/hr 0.00 in0.0 mm
09:00 AM 82.3°F27.9°C 74.8°F23.8°C 78% 4.5 mph ESE7.2 kmh ESE 11.0 mph17.7 kmh 30.01 in1016.3 mb 0.00 in0.0 mm 0.00 in/hr0.0 mm/hr 0.00 in0.0 mm
08:50 AM 81.5°F27.5°C 74.7°F23.7°C 80% 0.4 mph ESE0.6 kmh ESE 6.0 mph9.7 kmh 30.01 in1016.3 mb 0.00 in0.0 mm 0.00 in/hr0.0 mm/hr 0.00 in0.0 mm
08:40 AM 80.7°F27.1°C 74.3°F23.5°C 81% 1.9 mph ESE3.1 kmh ESE 1.0 mph1.6 kmh 30.01 in1016.3 mb 0.00 in0.0 mm 0.00 in/hr0.0 mm/hr 0.00 in0.0 mm
08:30 AM 79.7°F26.5°C 74.0°F23.3°C 83% 3.6 mph ESE5.8 kmh ESE 7.0 mph11.3 kmh 30.00 in1015.9 mb 0.00 in0.0 mm 0.00 in/hr0.0 mm/hr 0.00 in0.0 mm
08:20 AM 78.9°F26.1°C 73.7°F23.2°C 84% 1.9 mph ESE3.1 kmh ESE 1.0 mph1.6 kmh 30.00 in1015.9 mb 0.00 in0.0 mm 0.00 in/hr0.0 mm/hr 0.00 in0.0 mm
08:10 AM 78.3°F25.7°C 73.8°F23.2°C 86% 1.7 mph ESE2.7 kmh ESE 2.0 mph3.2 kmh 30.00 in1015.9 mb 0.00 in0.0 mm 0.00 in/hr0.0 mm/hr 0.00 in0.0 mm
08:00 AM 77.4°F25.2°C 73.2°F22.9°C 87% 1.9 mph ESE3.1 kmh ESE 8.0 mph12.9 kmh 30.00 in1015.9 mb 0.00 in0.0 mm 0.00 in/hr0.0 mm/hr 0.00 in0.0 mm
07:50 AM 76.5°F24.7°C 73.0°F22.8°C 89% 0.7 mph ESE1.1 kmh ESE 5.0 mph8.0 kmh 30.00 in1015.9 mb 0.00 in0.0 mm 0.00 in/hr0.0 mm/hr 0.00 in0.0 mm
07:40 AM 75.8°F24.3°C 72.7°F22.6°C 90% 0.1 mph ESE0.2 kmh ESE 2.0 mph3.2 kmh 29.99 in1015.6 mb 0.00 in0.0 mm 0.00 in/hr0.0 mm/hr 0.00 in0.0 mm
07:30 AM 75.4°F24.1°C 72.2°F22.3°C 90% 0.9 mph ESE1.4 kmh ESE 4.0 mph6.4 kmh 29.99 in1015.6 mb 0.00 in0.0 mm 0.00 in/hr0.0 mm/hr 0.00 in0.0 mm
07:20 AM 75.1°F23.9°C 72.3°F22.4°C 91% 0.4 mph ESE0.6 kmh ESE 4.0 mph6.4 kmh 29.98 in1015.2 mb 0.00 in0.0 mm 0.00 in/hr0.0 mm/hr 0.00 in0.0 mm
07:10 AM 75.0°F23.9°C 72.2°F22.3°C 91% 0.6 mph ESE1.0 kmh ESE 4.0 mph6.4 kmh 29.98 in1015.2 mb 0.00 in0.0 mm 0.00 in/hr0.0 mm/hr 0.00 in0.0 mm
07:00 AM 74.9°F23.8°C 72.1°F22.3°C 91% 0.6 mph ESE1.0 kmh ESE 2.0 mph3.2 kmh 29.98 in1015.2 mb 0.00 in0.0 mm 0.00 in/hr0.0 mm/hr 0.00 in0.0 mm
06:50 AM 74.9°F23.8°C 71.8°F22.1°C 90% 0.5 mph ESE0.8 kmh ESE 6.0 mph9.7 kmh 29.98 in1015.2 mb 0.00 in0.0 mm 0.00 in/hr0.0 mm/hr 0.00 in0.0 mm
06:40 AM 75.1°F23.9°C 72.0°F22.2°C 90% Calm Calm 1.0 mph1.6 kmh 29.97 in1014.9 mb 0.00 in0.0 mm 0.00 in/hr0.0 mm/hr 0.00 in0.0 mm
06:30 AM 75.2°F24.0°C 72.1°F22.3°C 90% 1.3 mph ESE2.1 kmh ESE 5.0 mph8.0 kmh 29.97 in1014.9 mb 0.00 in0.0 mm 0.00 in/hr0.0 mm/hr 0.00 in0.0 mm
06:20 AM 75.3°F24.1°C 71.8°F22.1°C 89% 3.5 mph ESE5.6 kmh ESE 6.0 mph9.7 kmh 29.97 in1014.9 mb 0.00 in0.0 mm 0.00 in/hr0.0 mm/hr 0.00 in0.0 mm
06:10 AM 75.4°F24.1°C 71.9°F22.2°C 89% 0.1 mph ESE0.2 kmh ESE 1.0 mph1.6 kmh 29.97 in1014.9 mb 0.00 in0.0 mm 0.00 in/hr0.0 mm/hr 0.00 in0.0 mm
06:00 AM 75.5°F24.2°C 72.0°F22.2°C 89% 0.3 mph ESE0.5 kmh ESE 4.0 mph6.4 kmh 29.97 in1014.9 mb 0.00 in0.0 mm 0.00 in/hr0.0 mm/hr 0.00 in0.0 mm
05:50 AM 75.6°F24.2°C 72.1°F22.3°C 89% 1.0 mph ESE1.6 kmh ESE 1.0 mph1.6 kmh 29.96 in1014.6 mb 0.00 in0.0 mm 0.00 in/hr0.0 mm/hr 0.00 in0.0 mm
05:40 AM 75.6°F24.2°C 72.2°F22.3°C 89% 1.5 mph ESE2.4 kmh ESE 5.0 mph8.0 kmh 29.96 in1014.6 mb 0.00 in0.0 mm 0.00 in/hr0.0 mm/hr 0.00 in0.0 mm
05:30 AM 75.7°F24.3°C 72.2°F22.3°C 89% Calm Calm -- 29.95 in1014.2 mb 0.00 in0.0 mm 0.00 in/hr0.0 mm/hr 0.00 in0.0 mm
05:20 AM 75.8°F24.3°C 72.0°F22.2°C 88% 1.0 mph ESE1.6 kmh ESE 4.0 mph6.4 kmh 29.95 in1014.2 mb 0.00 in0.0 mm 0.00 in/hr0.0 mm/hr 0.00 in0.0 mm
05:10 AM 75.9°F24.4°C 72.1°F22.3°C 88% 0.4 mph ESE0.6 kmh ESE 4.0 mph6.4 kmh 29.95 in1014.2 mb 0.00 in0.0 mm 0.00 in/hr0.0 mm/hr 0.00 in0.0 mm
05:00 AM 76.1°F24.5°C 72.2°F22.3°C 88% 1.6 mph ESE2.6 kmh ESE 6.0 mph9.7 kmh 29.95 in1014.2 mb 0.00 in0.0 mm 0.00 in/hr0.0 mm/hr 0.00 in0.0 mm
04:50 AM 76.3°F24.6°C 72.1°F22.3°C 87% 2.9 mph ESE4.7 kmh ESE 5.0 mph8.0 kmh 29.95 in1014.2 mb 0.00 in0.0 mm 0.00 in/hr0.0 mm/hr 0.00 in0.0 mm
04:40 AM 76.5°F24.7°C 72.3°F22.4°C 87% 2.7 mph ESE4.3 kmh ESE 4.0 mph6.4 kmh 29.94 in1013.9 mb 0.00 in0.0 mm 0.00 in/hr0.0 mm/hr 0.00 in0.0 mm
04:30 AM 76.7°F24.8°C 72.2°F22.3°C 86% 1.0 mph ESE1.6 kmh ESE 5.0 mph8.0 kmh 29.94 in1013.9 mb 0.00 in0.0 mm 0.00 in/hr0.0 mm/hr 0.00 in0.0 mm
04:20 AM 76.9°F24.9°C 72.4°F22.4°C 86% 3.9 mph ESE6.3 kmh ESE 6.0 mph9.7 kmh 29.94 in1013.9 mb 0.00 in0.0 mm 0.00 in/hr0.0 mm/hr 0.00 in0.0 mm
04:10 AM 77.0°F25.0°C 72.5°F22.5°C 86% 1.7 mph ESE2.7 kmh ESE 4.0 mph6.4 kmh 29.94 in1013.9 mb 0.00 in0.0 mm 0.00 in/hr0.0 mm/hr 0.00 in0.0 mm
04:00 AM 77.1°F25.1°C 72.6°F22.6°C 86% 2.4 mph ESE3.9 kmh ESE 7.0 mph11.3 kmh 29.94 in1013.9 mb 0.00 in0.0 mm 0.00 in/hr0.0 mm/hr 0.00 in0.0 mm
03:50 AM 77.3°F25.2°C 72.4°F22.4°C 85% 0.9 mph ESE1.4 kmh ESE 4.0 mph6.4 kmh 29.93 in1013.5 mb 0.00 in0.0 mm 0.00 in/hr0.0 mm/hr 0.00 in0.0 mm
03:40 AM 77.4°F25.2°C 72.6°F22.6°C 85% 0.2 mph ESE0.3 kmh ESE 6.0 mph9.7 kmh 29.93 in1013.5 mb 0.00 in0.0 mm 0.00 in/hr0.0 mm/hr 0.00 in0.0 mm
03:30 AM 77.5°F25.3°C 72.7°F22.6°C 85% 1.4 mph ESE2.3 kmh ESE 5.0 mph8.0 kmh 29.94 in1013.9 mb 0.00 in0.0 mm 0.00 in/hr0.0 mm/hr 0.00 in0.0 mm
03:20 AM 77.7°F25.4°C 72.8°F22.7°C 85% 2.5 mph ESE4.0 kmh ESE 5.0 mph8.0 kmh 29.94 in1013.9 mb 0.00 in0.0 mm 0.00 in/hr0.0 mm/hr 0.00 in0.0 mm
03:10 AM 77.8°F25.4°C 72.6°F22.6°C 84% 2.7 mph ESE4.3 kmh ESE 8.0 mph12.9 kmh 29.94 in1013.9 mb 0.00 in0.0 mm 0.00 in/hr0.0 mm/hr 0.00 in0.0 mm
03:00 AM 78.0°F25.6°C 72.8°F22.7°C 84% 1.2 mph ESE1.9 kmh ESE 5.0 mph8.0 kmh 29.94 in1013.9 mb 0.00 in0.0 mm 0.00 in/hr0.0 mm/hr 0.00 in0.0 mm
02:50 AM 78.1°F25.6°C 72.9°F22.7°C 84% 1.1 mph ESE1.8 kmh ESE 4.0 mph6.4 kmh 29.94 in1013.9 mb 0.00 in0.0 mm 0.00 in/hr0.0 mm/hr 0.00 in0.0 mm
02:40 AM 78.3°F25.7°C 73.1°F22.8°C 84% 1.9 mph ESE3.1 kmh ESE 6.0 mph9.7 kmh 29.95 in1014.2 mb 0.00 in0.0 mm 0.00 in/hr0.0 mm/hr 0.00 in0.0 mm
02:30 AM 78.4°F25.8°C 72.8°F22.7°C 83% 3.0 mph ESE4.8 kmh ESE 6.0 mph9.7 kmh 29.95 in1014.2 mb 0.00 in0.0 mm 0.00 in/hr0.0 mm/hr 0.00 in0.0 mm
02:20 AM 78.5°F25.8°C 72.9°F22.7°C 83% 3.2 mph ESE5.1 kmh ESE 9.0 mph14.5 kmh 29.95 in1014.2 mb 0.00 in0.0 mm 0.00 in/hr0.0 mm/hr 0.00 in0.0 mm
02:10 AM 78.6°F25.9°C 73.0°F22.8°C 83% 2.8 mph ESE4.5 kmh ESE 7.0 mph11.3 kmh 29.95 in1014.2 mb 0.00 in0.0 mm 0.00 in/hr0.0 mm/hr 0.00 in0.0 mm
02:00 AM 78.7°F25.9°C 73.1°F22.8°C 83% 1.5 mph ESE2.4 kmh ESE 6.0 mph9.7 kmh 29.95 in1014.2 mb 0.00 in0.0 mm 0.00 in/hr0.0 mm/hr 0.00 in0.0 mm
01:50 AM 78.8°F26.0°C 73.2°F22.9°C 83% 0.6 mph ESE1.0 kmh ESE 4.0 mph6.4 kmh 29.95 in1014.2 mb 0.00 in0.0 mm 0.00 in/hr0.0 mm/hr 0.00 in0.0 mm
01:40 AM 79.0°F26.1°C 73.0°F22.8°C 82% Calm Calm -- 29.96 in1014.6 mb 0.00 in0.0 mm 0.00 in/hr0.0 mm/hr 0.00 in0.0 mm
01:30 AM 79.3°F26.3°C 73.3°F22.9°C 82% 1.3 mph ESE2.1 kmh ESE 5.0 mph8.0 kmh 29.97 in1014.9 mb 0.00 in0.0 mm 0.00 in/hr0.0 mm/hr 0.00 in0.0 mm
01:20 AM 79.6°F26.4°C 73.2°F22.9°C 81% 0.7 mph ESE1.1 kmh ESE 2.0 mph3.2 kmh 29.97 in1014.9 mb 0.00 in0.0 mm 0.00 in/hr0.0 mm/hr 0.00 in0.0 mm
01:10 AM 79.8°F26.6°C 73.1°F22.8°C 80% Calm Calm -- 29.97 in1014.9 mb 0.00 in0.0 mm 0.00 in/hr0.0 mm/hr 0.00 in0.0 mm
01:00 AM 80.0°F26.7°C 73.3°F22.9°C 80% 0.6 mph ESE1.0 kmh ESE -- 29.97 in1014.9 mb 0.00 in0.0 mm 0.00 in/hr0.0 mm/hr 0.00 in0.0 mm
12:50 AM 80.1°F26.7°C 73.4°F23.0°C 80% 1.9 mph ESE3.1 kmh ESE 8.0 mph12.9 kmh 29.97 in1014.9 mb 0.00 in0.0 mm 0.00 in/hr0.0 mm/hr 0.00 in0.0 mm
12:40 AM 80.3°F26.8°C 73.2°F22.9°C 79% 0.3 mph ESE0.5 kmh ESE 6.0 mph9.7 kmh 29.97 in1014.9 mb 0.00 in0.0 mm 0.00 in/hr0.0 mm/hr 0.00 in0.0 mm
12:30 AM 80.5°F26.9°C 73.4°F23.0°C 79% 0.1 mph ESE0.2 kmh ESE 2.0 mph3.2 kmh 29.96 in1014.6 mb 0.00 in0.0 mm 0.00 in/hr0.0 mm/hr 0.00 in0.0 mm
12:20 AM 80.8°F27.1°C 73.3°F22.9°C 78% 1.5 mph ESE2.4 kmh ESE 2.0 mph3.2 kmh 29.96 in1014.6 mb 0.00 in0.0 mm 0.00 in/hr0.0 mm/hr 0.00 in0.0 mm
12:10 AM 81.0°F27.2°C 73.5°F23.1°C 78% 0.1 mph ESE0.2 kmh ESE -- 29.96 in1014.6 mb 0.00 in0.0 mm 0.00 in/hr0.0 mm/hr 0.00 in0.0 mm
12:00 AM 81.2°F27.3°C 73.7°F23.2°C 78% 0.4 mph ESE0.6 kmh ESE 5.0 mph8.0 kmh 29.95 in1014.2 mb 0.00 in0.0 mm 0.00 in/hr0.0 mm/hr 0.00 in0.0 mm